Time;durP1;ratioP1;P1;durP2;ratioP2;P2;SDS_P1;SDS_P2;PMS_P1;PMS_P2;Temp;Humidity;BMP_temperature;BMP_pressure;BME280_temperature;BME280_humidity;BME280_pressure;Samples;Min_cycle;Max_cycle;Signal;HPM_P1;HPM_P2
2022/08/19 00:00:45;;;;;;;;;;;;;;;22.73;86.19;99216.63;5074466;28;914;-62
2022/08/19 00:03:12;;;;;;;;;;;;;;;22.73;85.98;99207.41;5074524;28;1399;-63
2022/08/19 00:05:40;;;;;;;;;;;;;;;22.72;86.27;99217.13;5074394;28;792;-62
2022/08/19 00:11:08;;;;;;;;;;;;;;;22.73;84.98;99221.50;5074298;28;669;-63
2022/08/19 00:13:35;;;;;;;;;;;;;;;22.77;84.81;99219.22;5074292;28;870;-62
2022/08/19 00:16:02;;;;;;;;;;;;;;;22.79;84.27;99222.31;5074280;28;1913;-62
2022/08/19 00:18:29;;;;;;;;;;;;;;;22.82;84.12;99226.94;5074098;28;927;-62
2022/08/19 00:23:59;;;;;;;;;;;;;;;22.82;84.81;99213.63;5074117;28;630;-62
2022/08/19 00:26:27;;;;;;;;;;;;;;;22.80;84.96;99210.53;5073940;28;878;-62
2022/08/19 00:28:55;;;;;;;;;;;;;;;22.78;84.70;99213.06;5073930;28;835;-62
2022/08/19 00:31:21;;;;;;;;;;;;;;;22.79;84.64;99225.13;5073840;28;868;-62
2022/08/19 00:33:50;;;;;;;;;;;;;;;22.82;84.33;99218.47;5073842;28;835;-62
2022/08/19 00:36:28;;;;;;;;;;;;;;;22.85;84.44;99211.84;5073761;28;1910;-62
2022/08/19 00:38:55;;;;;;;;;;;;;;;22.83;84.72;99209.53;5055702;28;1293;-63
2022/08/19 00:41:31;;;;;;;;;;;;;;;22.84;84.07;99204.66;5073721;28;835;-63
2022/08/19 00:44:14;;;;;;;;;;;;;;;22.83;84.35;99209.53;5055727;28;1184;-63
2022/08/19 00:46:42;;;;;;;;;;;;;;;22.78;84.10;99212.31;5073531;28;823;-63
2022/08/19 00:49:35;;;;;;;;;;;;;;;22.81;83.68;99209.25;5073769;28;843;-62
2022/08/19 00:52:30;;;;;;;;;;;;;;;22.85;82.94;99214.66;5069304;28;1069;-63
2022/08/19 00:54:58;;;;;;;;;;;;;;;22.83;83.29;99209.53;5070599;28;1183;-62
2022/08/19 00:57:37;;;;;;;;;;;;;;;22.79;82.76;99209.00;5073466;28;1881;-62
2022/08/19 01:00:09;;;;;;;;;;;;;;;22.77;83.21;99219.22;5073351;28;826;-62
2022/08/19 01:02:35;;;;;;;;;;;;;;;22.70;83.25;99217.63;5073403;28;1317;-62
2022/08/19 01:05:04;;;;;;;;;;;;;;;22.67;83.38;99218.63;5073419;28;909;-63
2022/08/19 01:07:31;;;;;;;;;;;;;;;22.66;83.47;99222.72;5073261;28;906;-63
2022/08/19 01:10:28;;;;;;;;;;;;;;;22.61;83.18;99229.06;5073176;28;839;-62
2022/08/19 01:12:55;;;;;;;;;;;;;;;22.55;83.22;99231.88;5073412;28;869;-63
2022/08/19 01:15:25;;;;;;;;;;;;;;;22.51;83.58;99227.69;5073020;28;1975;-63
2022/08/19 01:18:04;;;;;;;;;;;;;;;22.45;84.17;99227.69;5072987;28;858;-62
2022/08/19 01:20:30;;;;;;;;;;;;;;;22.42;84.94;99231.47;5072942;28;851;-63
2022/08/19 01:22:58;;;;;;;;;;;;;;;22.40;85.01;99234.00;5054943;28;951;-62
2022/08/19 01:25:31;;;;;;;;;;;;;;;22.37;85.10;99223.75;5072830;28;864;-62
2022/08/19 01:27:57;;;;;;;;;;;;;;;22.33;85.84;99238.06;5054865;28;875;-62
2022/08/19 01:30:31;;;;;;;;;;;;;;;22.29;85.42;99231.09;5073050;28;874;-63
2022/08/19 01:33:00;;;;;;;;;;;;;;;22.29;85.37;99236.72;5072628;28;890;-62
2022/08/19 01:35:29;;;;;;;;;;;;;;;22.27;85.56;99230.81;5073164;28;1952;-62
2022/08/19 01:38:01;;;;;;;;;;;;;;;22.24;86.50;99226.19;5072870;28;788;-62
2022/08/19 01:40:30;;;;;;;;;;;;;;;22.19;87.04;99225.63;5072979;28;896;-62
2022/08/19 01:42:57;;;;;;;;;;;;;;;22.17;86.63;99239.41;5054623;28;1333;-63
2022/08/19 01:45:27;;;;;;;;;;;;;;;22.16;86.45;99228.66;5072337;28;893;-62
2022/08/19 01:47:54;;;;;;;;;;;;;;;22.13;87.03;99230.41;5054749;28;1202;-62
2022/08/19 01:50:22;;;;;;;;;;;;;;;22.08;87.36;99233.94;5072337;28;846;-63
2022/08/19 01:52:48;;;;;;;;;;;;;;;22.02;87.06;99228.25;5072538;28;834;-63
2022/08/19 01:55:16;;;;;;;;;;;;;;;21.98;87.27;99238.19;5072135;28;1917;-62
2022/08/19 01:57:46;;;;;;;;;;;;;;;21.94;87.43;99235.59;5072305;28;858;-63
2022/08/19 02:00:15;;;;;;;;;;;;;;;21.90;87.23;99237.06;5072187;28;886;-63
2022/08/19 02:02:42;;;;;;;;;;;;;;;21.85;87.79;99229.31;5071393;28;1236;-62
2022/08/19 02:05:09;;;;;;;;;;;;;;;21.81;87.92;99235.97;5072039;28;910;-63
2022/08/19 02:10:40;;;;;;;;;;;;;;;21.77;87.13;99234.63;5072028;28;695;-63
2022/08/19 02:13:07;;;;;;;;;;;;;;;21.72;87.30;99233.31;5071851;28;890;-62
2022/08/19 02:15:34;;;;;;;;;;;;;;;21.68;87.63;99234.75;5071769;28;1926;-62
2022/08/19 02:18:00;;;;;;;;;;;;;;;21.66;87.77;99232.47;5071851;28;863;-63
2022/08/19 02:20:27;;;;;;;;;;;;;;;21.62;88.39;99231.91;5053864;28;1176;-62
2022/08/19 02:22:53;;;;;;;;;;;;;;;21.57;89.13;99243.84;5071835;28;891;-62
2022/08/19 02:25:20;;;;;;;;;;;;;;;21.52;90.05;99239.69;5071729;28;898;-62
2022/08/19 02:27:46;;;;;;;;;;;;;;;21.47;90.61;99240.41;5071809;28;913;-62
2022/08/19 02:30:15;;;;;;;;;;;;;;;21.41;91.75;99231.88;5071713;28;894;-62
2022/08/19 02:32:42;;;;;;;;;;;;;;;21.29;92.87;99232.19;5071758;28;886;-62
2022/08/19 02:35:09;;;;;;;;;;;;;;;21.26;92.96;99233.97;5071549;28;1886;-62
2022/08/19 02:40:21;;;;;;;;;;;;;;;21.32;92.45;99226.38;5071651;28;625;-62
2022/08/19 02:42:47;;;;;;;;;;;;;;;21.39;91.32;99231.56;5071563;28;831;-62
2022/08/19 02:45:14;;;;;;;;;;;;;;;21.44;90.43;99241.38;5071447;28;914;-62
2022/08/19 02:47:41;;;;;;;;;;;;;;;21.49;89.34;99240.69;5071582;28;835;-63
2022/08/19 02:50:08;;;;;;;;;;;;;;;21.50;89.52;99239.41;5071546;28;795;-63
2022/08/19 02:52:35;;;;;;;;;;;;;;;21.52;89.87;99236.88;5071402;28;823;-62
2022/08/19 02:55:02;;;;;;;;;;;;;;;21.46;89.72;99241.66;5071540;28;843;-62
2022/08/19 02:57:31;;;;;;;;;;;;;;;21.45;91.04;99236.53;5071333;28;1874;-62
2022/08/19 02:59:57;;;;;;;;;;;;;;;21.40;91.61;99247.19;5053350;28;907;-62
2022/08/19 03:02:24;;;;;;;;;;;;;;;21.39;91.97;99245.63;5071514;28;1176;-63
2022/08/19 03:04:50;;;;;;;;;;;;;;;21.36;92.71;99249.44;5071323;28;855;-63
2022/08/19 03:07:18;;;;;;;;;;;;;;;21.33;92.76;99250.41;5071587;28;859;-62
2022/08/19 03:09:45;;;;;;;;;;;;;;;21.33;92.68;99247.59;5071372;28;818;-62
2022/08/19 03:12:11;;;;;;;;;;;;;;;21.38;91.58;99248.94;5071240;28;866;-63
2022/08/19 03:14:38;;;;;;;;;;;;;;;21.47;90.34;99253.69;5074125;28;835;-62
2022/08/19 03:17:05;;;;;;;;;;;;;;;21.48;89.98;99250.38;5075351;28;1949;-62
2022/08/19 03:19:31;;;;;;;;;;;;;;;21.50;89.76;99250.66;5057280;28;1390;-62
2022/08/19 03:21:58;;;;;;;;;;;;;;;21.50;89.60;99247.06;5075261;28;837;-62
2022/08/19 03:24:25;;;;;;;;;;;;;;;21.51;89.34;99255.03;5075224;28;862;-62
2022/08/19 03:26:55;;;;;;;;;;;;;;;21.52;89.22;99241.72;5075135;28;878;-62
2022/08/19 03:29:22;;;;;;;;;;;;;;;21.50;90.13;99249.88;5075193;28;858;-62
2022/08/19 03:31:50;;;;;;;;;;;;;;;21.49;90.98;99265.22;5075021;28;831;-62
2022/08/19 03:34:19;;;;;;;;;;;;;;;21.44;91.35;99263.84;5075325;28;831;-62
2022/08/19 03:36:46;;;;;;;;;;;;;;;21.42;91.58;99269.19;5074814;28;1881;-62
2022/08/19 03:39:13;;;;;;;;;;;;;;;21.39;91.89;99259.69;5074935;28;815;-62
2022/08/19 03:41:41;;;;;;;;;;;;;;;21.43;91.95;99267.19;5074933;28;835;-62
2022/08/19 03:44:08;;;;;;;;;;;;;;;21.40;92.78;99263.25;5074635;28;873;-62
2022/08/19 03:46:35;;;;;;;;;;;;;;;21.29;93.42;99266.69;5074767;28;870;-62
2022/08/19 03:49:07;;;;;;;;;;;;;;;21.43;93.38;99267.19;5074998;28;882;-62
2022/08/19 03:51:38;;;;;;;;;;;;;;;21.43;93.76;99272.81;5056684;28;1211;-62
2022/08/19 03:54:06;;;;;;;;;;;;;;;21.49;93.68;99282.09;5074884;28;866;-62
2022/08/19 03:56:34;;;;;;;;;;;;;;;21.49;94.14;99282.84;5074472;28;1945;-62
2022/08/19 03:59:02;;;;;;;;;;;;;;;21.55;94.21;99280.09;5074473;28;894;-62
2022/08/19 04:01:28;;;;;;;;;;;;;;;21.69;93.94;99290.50;5074540;28;925;-62
2022/08/19 04:03:59;;;;;;;;;;;;;;;21.70;93.86;99291.28;5074270;28;1335;-62
2022/08/19 04:06:28;;;;;;;;;;;;;;;21.61;94.51;99289.38;5056392;28;1302;-62
2022/08/19 04:08:55;;;;;;;;;;;;;;;21.56;95.64;99292.91;5074423;28;882;-62
2022/08/19 04:11:25;;;;;;;;;;;;;;;21.58;95.57;99298.81;5074292;28;878;-62
2022/08/19 04:13:52;;;;;;;;;;;;;;;21.67;95.38;99298.66;5074114;28;866;-62
2022/08/19 04:16:19;;;;;;;;;;;;;;;21.77;94.79;99308.53;5074118;28;1910;-62
2022/08/19 04:18:47;;;;;;;;;;;;;;;21.79;94.75;99300.38;5074171;28;898;-62
2022/08/19 04:21:20;;;;;;;;;;;;;;;21.85;94.60;99305.28;5074100;28;875;-62
2022/08/19 04:23:46;;;;;;;;;;;;;;;21.91;94.67;99303.31;5055965;28;1235;-62
2022/08/19 04:26:23;;;;;;;;;;;;;;;21.94;94.16;99311.53;5073991;28;866;-62
2022/08/19 04:28:51;;;;;;;;;;;;;;;22.00;94.48;99311.63;5056013;28;1160;-62
2022/08/19 04:31:19;;;;;;;;;;;;;;;22.03;94.50;99308.56;5073932;28;894;-62
2022/08/19 04:33:46;;;;;;;;;;;;;;;22.11;94.38;99310.97;5073922;28;866;-62
2022/08/19 04:36:20;;;;;;;;;;;;;;;22.22;94.28;99309.06;5073789;28;1941;-62
2022/08/19 04:38:49;;;;;;;;;;;;;;;22.37;93.74;99317.44;5073775;28;890;-62
2022/08/19 04:44:02;;;;;;;;;;;;;;;22.71;92.51;99297.28;5073621;28;629;-62
2022/08/19 04:46:30;;;;;;;;;;;;;;;22.84;91.75;99301.22;5073640;28;902;-61
2022/08/19 04:48:56;;;;;;;;;;;;;;;22.99;90.85;99300.31;5055600;28;1192;-62
2022/08/19 04:51:23;;;;;;;;;;;;;;;23.12;90.38;99303.50;5055540;28;1337;-62
2022/08/19 04:53:51;;;;;;;;;;;;;;;23.26;89.99;99298.22;5073546;28;827;-62
2022/08/19 04:56:20;;;;;;;;;;;;;;;23.38;89.62;99300.59;5073333;28;1944;-61
2022/08/19 04:58:46;;;;;;;;;;;;;;;23.50;89.07;99295.03;5073437;28;826;-61
2022/08/19 05:01:19;;;;;;;;;;;;;;;23.63;88.28;99295.38;5073326;28;884;-62
2022/08/19 05:03:45;;;;;;;;;;;;;;;23.78;88.42;99304.44;5073267;28;1393;-61
2022/08/19 05:06:13;;;;;;;;;;;;;;;23.94;87.64;99302.19;5073280;28;812;-61
2022/08/19 05:08:43;;;;;;;;;;;;;;;24.13;87.63;99302.50;5073303;28;889;-61
2022/08/19 05:11:13;;;;;;;;;;;;;;;24.36;86.59;99298.47;5073178;28;839;-61
2022/08/19 05:13:42;;;;;;;;;;;;;;;24.65;85.37;99300.09;5073064;28;879;-61
2022/08/19 05:16:09;;;;;;;;;;;;;;;24.85;84.90;99310.34;5073258;28;1906;-61
2022/08/19 05:24:10;;;;;;;;;;;;;;;25.61;77.13;99299.25;5073176;28;697;-61
2022/08/19 05:26:37;;;;;;;;;;;;;;;25.81;75.03;99304.56;5072874;28;855;-61
2022/08/19 05:29:04;;;;;;;;;;;;;;;25.96;74.66;99301.44;5073040;28;1019;-61
2022/08/19 05:31:31;;;;;;;;;;;;;;;26.10;74.28;99302.41;5072763;28;906;-61
2022/08/19 05:34:00;;;;;;;;;;;;;;;26.21;71.73;99299.50;5072756;28;862;-62
2022/08/19 05:36:26;;;;;;;;;;;;;;;26.35;71.01;99311.00;5053833;28;1954;-61
2022/08/19 05:38:53;;;;;;;;;;;;;;;26.47;70.08;99304.75;5072592;28;891;-62
2022/08/19 05:41:20;;;;;;;;;;;;;;;26.68;69.28;99310.81;5072438;28;807;-62
2022/08/19 05:43:47;;;;;;;;;;;;;;;26.83;66.47;99304.03;5072799;28;882;-61
2022/08/19 05:46:23;;;;;;;;;;;;;;;26.92;64.74;99315.03;5072425;28;862;-61
2022/08/19 05:48:50;;;;;;;;;;;;;;;27.08;63.37;99316.94;5072404;28;831;-61
2022/08/19 05:51:16;;;;;;;;;;;;;;;27.24;61.13;99317.34;5072355;28;906;-62
2022/08/19 05:53:45;;;;;;;;;;;;;;;27.47;60.00;99306.53;5072275;28;808;-62
2022/08/19 05:56:18;;;;;;;;;;;;;;;27.74;58.65;99306.75;5054550;28;1886;-61
2022/08/19 05:58:45;;;;;;;;;;;;;;;27.93;57.37;99313.28;5072559;28;827;-62
2022/08/19 06:01:13;;;;;;;;;;;;;;;28.12;55.91;99309.66;5072201;28;913;-61
2022/08/19 06:06:43;;;;;;;;;;;;;;;28.73;52.88;99304.44;5072423;28;630;-61
2022/08/19 06:09:10;;;;;;;;;;;;;;;29.05;52.83;99299.47;5072295;28;921;-62
2022/08/19 06:11:43;;;;;;;;;;;;;;;29.40;52.34;99299.66;5054150;28;1279;-61
2022/08/19 06:14:20;;;;;;;;;;;;;;;29.62;50.18;99298.47;5072013;28;815;-62
2022/08/19 06:19:56;;;;;;;;;;;;;;;29.81;49.12;99284.13;5071999;28;669;-62
2022/08/19 06:34:42;;;;;;;;;;;;;;;29.68;49.98;99287.72;5072076;28;609;-61
2022/08/19 06:37:09;;;;;;;;;;;;;;;30.04;49.22;99288.06;5071698;28;1901;-61
2022/08/19 06:39:38;;;;;;;;;;;;;;;30.52;48.68;99285.94;5072078;28;767;-61
2022/08/19 06:42:07;;;;;;;;;;;;;;;30.48;46.82;99290.47;5071687;28;870;-61
2022/08/19 06:44:36;;;;;;;;;;;;;;;30.27;47.38;99285.44;5071588;28;831;-61
2022/08/19 06:47:03;;;;;;;;;;;;;;;30.42;47.50;99296.28;5071428;28;830;-61
2022/08/19 06:49:36;;;;;;;;;;;;;;;30.65;46.42;99282.25;5071474;28;850;-62
2022/08/19 06:52:15;;;;;;;;;;;;;;;30.18;47.08;99276.63;5071599;28;854;-62
2022/08/19 06:54:44;;;;;;;;;;;;;;;30.12;47.56;99283.19;5071426;28;873;-61
2022/08/19 06:57:14;;;;;;;;;;;;;;;30.31;47.34;99282.28;5071537;28;1889;-61
2022/08/19 07:02:54;;;;;;;;;;;;;;;30.69;46.54;99281.94;5071569;28;1377;-61
2022/08/19 07:05:32;;;;;;;;;;;;;;;30.48;45.87;99285.50;5053308;28;1287;-62
2022/08/19 07:08:17;;;;;;;;;;;;;;;30.27;46.42;99273.28;5071517;28;878;-61
2022/08/19 07:13:57;;;;;;;;;;;;;;;30.05;46.86;99261.09;5071380;28;615;-62
2022/08/19 07:19:29;;;;;;;;;;;;;;;30.92;46.01;99268.66;5068474;28;1138;-62
2022/08/19 07:21:56;;;;;;;;;;;;;;;31.02;44.34;99259.59;5071208;28;815;-61
2022/08/19 07:24:26;;;;;;;;;;;;;;;31.69;44.06;99266.34;5071107;28;858;-61
2022/08/19 07:26:56;;;;;;;;;;;;;;;32.19;42.71;99266.16;5071516;28;886;-61
2022/08/19 07:29:32;;;;;;;;;;;;;;;32.66;41.91;99253.50;5071085;28;835;-60
2022/08/19 07:32:00;;;;;;;;;;;;;;;33.13;40.99;99255.06;5071154;28;874;-61
2022/08/19 07:34:28;;;;;;;;;;;;;;;33.80;40.82;99253.19;5071022;28;844;-61
2022/08/19 07:37:03;;;;;;;;;;;;;;;34.64;38.27;99249.91;5071026;28;1971;-61
2022/08/19 07:39:31;;;;;;;;;;;;;;;34.40;38.08;99260.00;5070974;28;871;-60
2022/08/19 07:41:59;;;;;;;;;;;;;;;34.66;38.46;99250.09;5070945;28;901;-61
2022/08/19 07:47:28;;;;;;;;;;;;;;;34.22;38.07;99259.13;5070959;28;661;-61
2022/08/19 07:53:00;;;;;;;;;;;;;;;34.32;38.33;99256.41;5066225;28;1126;-60
2022/08/19 07:55:34;;;;;;;;;;;;;;;34.69;37.66;99248.91;5070817;28;1893;-61
2022/08/19 07:58:00;;;;;;;;;;;;;;;34.65;36.81;99253.53;5071336;28;780;-61
2022/08/19 08:00:33;;;;;;;;;;;;;;;34.56;37.29;99249.16;5073624;28;791;-60
2022/08/19 08:02:59;;;;;;;;;;;;;;;34.87;37.52;99261.22;5076334;28;1228;-60
2022/08/19 08:10:58;;;;;;;;;;;;;;;35.65;35.66;99264.13;5074506;28;805;-61
2022/08/19 08:13:26;;;;;;;;;;;;;;;35.90;34.87;99264.78;5074583;28;819;-61
2022/08/19 08:19:02;;;;;;;;;;;;;;;35.22;35.84;99267.03;5074277;28;672;-60
2022/08/19 08:21:38;;;;;;;;;;;;;;;35.58;35.34;99257.09;5074118;28;1172;-61
2022/08/19 08:24:05;;;;;;;;;;;;;;;35.49;34.79;99263.53;5074120;28;886;-61
2022/08/19 08:26:31;;;;;;;;;;;;;;;35.10;35.34;99268.84;5074092;28;842;-60
2022/08/19 08:28:58;;;;;;;;;;;;;;;35.28;36.22;99267.56;5074039;28;897;-61
2022/08/19 08:31:35;;;;;;;;;;;;;;;35.69;34.93;99267.34;5073999;28;807;-61
2022/08/19 08:37:19;;;;;;;;;;;;;;;35.46;34.66;99262.56;5073786;28;1901;-62
2022/08/19 08:39:47;;;;;;;;;;;;;;;35.07;34.94;99273.66;5073807;28;851;-61
2022/08/19 08:42:19;;;;;;;;;;;;;;;35.02;35.85;99263.19;5073830;28;835;-61
2022/08/19 08:44:52;;;;;;;;;;;;;;;35.06;35.62;99266.41;5074174;28;858;-61
2022/08/19 08:59:37;;;;;;;;;;;;;;;34.03;37.55;99270.28;5073788;28;653;-61
2022/08/19 09:05:08;;;;;;;;;;;;;;;34.56;37.38;99260.66;5082564;28;1306;-61
2022/08/19 09:07:46;;;;;;;;;;;;;;;34.23;36.96;99272.16;5073281;28;905;-61
2022/08/19 09:25:27;;;;;;;;;;;;;;;35.03;36.41;99258.97;5073285;28;602;-61
2022/08/19 09:27:54;;;;;;;;;;;;;;;35.07;35.73;99259.31;5072832;28;831;-62
2022/08/19 09:30:34;;;;;;;;;;;;;;;33.55;37.22;99273.88;5072769;28;847;-62
2022/08/19 10:01:31;;;;;;;;;;;;;;;35.03;34.20;99247.47;5964814;22;1530;-63
2022/08/19 10:04:02;;;;;;;;;;;;;;;35.30;34.18;99247.63;5052656;28;898;-63
2022/08/19 10:06:32;;;;;;;;;;;;;;;35.53;33.41;99247.38;5052224;28;889;-63
2022/08/19 10:08:59;;;;;;;;;;;;;;;35.33;32.60;99262.91;5052167;28;826;-62
2022/08/19 10:11:27;;;;;;;;;;;;;;;35.11;33.33;99261.78;5034190;28;1196;-63
2022/08/19 10:13:54;;;;;;;;;;;;;;;35.38;33.89;99250.44;5052035;28;851;-63
2022/08/19 10:16:23;;;;;;;;;;;;;;;35.47;32.57;99258.38;5051960;28;1921;-63
2022/08/19 10:18:51;;;;;;;;;;;;;;;35.16;33.15;99252.94;5051935;28;953;-64
2022/08/19 10:21:24;;;;;;;;;;;;;;;35.32;33.15;99247.81;5051902;28;828;-63
2022/08/19 10:23:53;;;;;;;;;;;;;;;35.39;33.08;99243.31;5051452;28;879;-63
2022/08/19 10:26:22;;;;;;;;;;;;;;;35.41;33.40;99242.75;5051807;28;840;-63
2022/08/19 10:28:50;;;;;;;;;;;;;;;35.33;33.49;99251.44;5052173;28;846;-63
2022/08/19 10:31:23;;;;;;;;;;;;;;;34.97;33.74;99244.09;5051841;28;855;-61
2022/08/19 10:33:50;;;;;;;;;;;;;;;34.31;33.99;99260.63;5051715;28;827;-62
2022/08/19 10:36:19;;;;;;;;;;;;;;;34.43;34.13;99255.19;5051698;28;1906;-62
2022/08/19 10:38:49;;;;;;;;;;;;;;;34.65;32.82;99239.19;5051653;28;835;-62
2022/08/19 10:41:26;;;;;;;;;;;;;;;34.60;33.12;99251.66;5051620;28;870;-62
2022/08/19 10:43:59;;;;;;;;;;;;;;;34.81;33.96;99243.47;5051837;28;878;-63
2022/08/19 10:46:27;;;;;;;;;;;;;;;35.13;32.96;99256.97;5051821;28;840;-63
2022/08/19 10:48:54;;;;;;;;;;;;;;;35.31;31.84;99239.75;5051491;28;886;-63
2022/08/19 10:54:06;;;;;;;;;;;;;;;35.61;31.76;99252.28;5051891;28;626;-63
2022/08/19 10:59:32;;;;;;;;;;;;;;;35.76;31.72;99237.75;5051357;28;1339;-62
2022/08/19 11:02:23;;;;;;;;;;;;;;;34.20;32.93;99250.34;5052644;28;1350;-62
2022/08/19 11:04:51;;;;;;;;;;;;;;;33.72;33.56;99242.53;5071905;28;1088;-63
2022/08/19 11:07:20;;;;;;;;;;;;;;;34.42;33.04;99245.84;5071942;28;855;-63
2022/08/19 11:09:47;;;;;;;;;;;;;;;35.23;32.27;99242.72;5071366;28;808;-63
2022/08/19 11:12:16;;;;;;;;;;;;;;;35.73;31.03;99245.44;5071502;28;819;-63
2022/08/19 11:14:42;;;;;;;;;;;;;;;35.92;31.32;99244.06;5071289;28;851;-63
2022/08/19 11:17:19;;;;;;;;;;;;;;;36.42;30.86;99243.78;5071189;28;1979;-64
2022/08/19 11:22:52;;;;;;;;;;;;;;;36.65;29.52;99245.56;5071169;28;1241;-63
2022/08/19 11:25:19;;;;;;;;;;;;;;;36.63;29.68;99226.00;5071224;28;847;-63
2022/08/19 11:27:46;;;;;;;;;;;;;;;36.63;29.06;99239.66;5071126;28;949;-63
2022/08/19 11:30:13;;;;;;;;;;;;;;;36.81;29.08;99232.44;5070982;28;901;-63
2022/08/19 11:32:41;;;;;;;;;;;;;;;36.93;29.26;99221.09;5071124;28;891;-64
2022/08/19 11:35:10;;;;;;;;;;;;;;;37.30;28.90;99218.13;5055266;28;1401;-63
2022/08/19 11:37:37;;;;;;;;;;;;;;;37.38;28.95;99215.88;5074870;28;1894;-63
2022/08/19 11:40:05;;;;;;;;;;;;;;;36.38;29.67;99218.34;5074978;28;879;-63
2022/08/19 11:45:16;;;;;;;;;;;;;;;35.24;31.74;99217.63;5075146;28;678;-63
2022/08/19 11:47:43;;;;;;;;;;;;;;;36.41;30.92;99216.38;5074953;28;807;-63
2022/08/19 11:50:10;;;;;;;;;;;;;;;37.40;28.89;99204.50;5074871;28;882;-63
2022/08/19 11:52:36;;;;;;;;;;;;;;;38.16;27.00;99198.53;5074863;28;980;-63
2022/08/19 11:55:03;;;;;;;;;;;;;;;38.74;26.66;99194.66;5074971;28;820;-64
2022/08/19 11:57:30;;;;;;;;;;;;;;;39.37;26.02;99196.06;5074561;28;1898;-64
2022/08/19 11:59:56;;;;;;;;;;;;;;;39.59;25.96;99202.56;5074415;28;878;-64
2022/08/19 12:05:28;;;;;;;;;;;;;;;39.29;25.88;99197.66;5070339;28;1017;-63
2022/08/19 12:07:58;;;;;;;;;;;;;;;39.44;25.76;99196.50;5074428;28;878;-64
2022/08/19 12:10:24;;;;;;;;;;;;;;;39.19;25.87;99195.56;5074424;28;929;-64
2022/08/19 12:12:51;;;;;;;;;;;;;;;38.65;26.11;99186.81;5074283;28;1055;-63
2022/08/19 12:15:17;;;;;;;;;;;;;;;38.39;26.41;99192.97;5074277;28;852;-63
2022/08/19 12:17:48;;;;;;;;;;;;;;;38.47;26.19;99187.00;5074146;28;1977;-64
2022/08/19 12:20:16;;;;;;;;;;;;;;;39.13;26.07;99188.63;5074381;28;859;-64
2022/08/19 12:22:43;;;;;;;;;;;;;;;39.57;25.40;99181.44;5074189;28;831;-64
2022/08/19 12:28:15;;;;;;;;;;;;;;;37.09;27.81;99187.81;5070957;28;1331;-63
2022/08/19 12:30:42;;;;;;;;;;;;;;;35.61;29.21;99195.56;5073955;28;898;-63
2022/08/19 12:33:09;;;;;;;;;;;;;;;34.75;30.38;99182.66;5074035;28;893;-63
2022/08/19 12:35:39;;;;;;;;;;;;;;;35.79;29.08;99173.34;5073790;28;1927;-63
2022/08/19 12:38:06;;;;;;;;;;;;;;;37.31;27.34;99167.81;5073897;28;871;-64
2022/08/19 12:40:32;;;;;;;;;;;;;;;38.91;25.73;99168.38;5074055;28;895;-64
2022/08/19 12:42:59;;;;;;;;;;;;;;;39.71;24.84;99164.25;5073827;28;886;-64
2022/08/19 12:45:31;;;;;;;;;;;;;;;40.19;23.99;99163.75;5073484;28;878;-64
2022/08/19 12:47:58;;;;;;;;;;;;;;;40.86;23.42;99171.44;5073723;28;870;-64
2022/08/19 12:50:24;;;;;;;;;;;;;;;41.12;22.93;99169.34;5073653;28;859;-64
2022/08/19 12:52:51;;;;;;;;;;;;;;;41.03;22.72;99171.00;5073592;28;827;-64
2022/08/19 12:55:22;;;;;;;;;;;;;;;39.47;24.20;99169.22;5073505;28;925;-64
2022/08/19 13:10:21;;;;;;;;;;;;;;;38.35;25.15;99160.19;5071798;28;1194;-65
2022/08/19 13:12:49;;;;;;;;;;;;;;;38.89;24.58;99165.38;5073203;28;840;-64
2022/08/19 13:15:20;;;;;;;;;;;;;;;39.43;23.93;99163.91;5073080;28;853;-64
2022/08/19 13:17:50;;;;;;;;;;;;;;;40.00;23.08;99166.88;5073180;28;1913;-66
2022/08/19 13:20:18;;;;;;;;;;;;;;;40.13;22.68;99168.41;5072942;28;899;-65
2022/08/19 13:22:45;;;;;;;;;;;;;;;39.89;22.59;99173.41;5073117;28;819;-65
2022/08/19 13:25:13;;;;;;;;;;;;;;;38.94;23.37;99180.84;5073334;28;906;-64
2022/08/19 13:27:47;;;;;;;;;;;;;;;37.02;25.27;99185.78;5072984;28;831;-64
2022/08/19 13:33:10;;;;;;;;;;;;;;;35.32;28.35;99175.25;5072641;28;1169;-63
2022/08/19 13:35:39;;;;;;;;;;;;;;;35.46;28.11;99184.25;5072671;28;1914;-64
2022/08/19 13:38:06;;;;;;;;;;;;;;;37.11;26.65;99175.72;5072593;28;832;-64
2022/08/19 13:40:36;;;;;;;;;;;;;;;37.81;27.58;99175.81;5072701;28;893;-64
2022/08/19 13:43:04;;;;;;;;;;;;;;;36.63;30.11;99182.09;5072701;28;844;-64
2022/08/19 13:45:34;;;;;;;;;;;;;;;35.76;32.14;99181.03;5072715;28;944;-63
2022/08/19 13:48:06;;;;;;;;;;;;;;;36.70;31.57;99175.44;5072580;28;835;-64
2022/08/19 13:50:33;;;;;;;;;;;;;;;37.95;30.35;99168.19;5072420;28;906;-64
2022/08/19 13:53:01;;;;;;;;;;;;;;;38.70;29.54;99160.47;5072404;28;842;-64
2022/08/19 13:55:27;;;;;;;;;;;;;;;38.85;29.24;99167.97;5072375;28;863;-64
2022/08/19 13:57:54;;;;;;;;;;;;;;;38.87;29.16;99164.47;5071581;28;1964;-64
2022/08/19 14:00:21;;;;;;;;;;;;;;;37.44;31.32;99164.47;5072214;28;866;-64
2022/08/19 14:02:51;;;;;;;;;;;;;;;36.91;32.47;99169.13;5072130;28;1446;-63
2022/08/19 14:05:18;;;;;;;;;;;;;;;37.55;31.76;99165.97;5072214;28;875;-65
2022/08/19 14:07:45;;;;;;;;;;;;;;;38.24;30.49;99164.50;5072068;28;865;-64
2022/08/19 14:10:12;;;;;;;;;;;;;;;38.06;30.60;99166.81;5071835;28;1435;-64
2022/08/19 14:12:39;;;;;;;;;;;;;;;37.96;31.24;99166.84;5072019;28;882;-64
2022/08/19 14:15:06;;;;;;;;;;;;;;;37.63;31.27;99168.72;5072034;28;867;-65
2022/08/19 14:17:34;;;;;;;;;;;;;;;37.05;32.21;99164.44;5071967;28;1922;-64
2022/08/19 14:20:04;;;;;;;;;;;;;;;36.82;33.32;99164.09;5071826;28;891;-65
2022/08/19 14:22:30;;;;;;;;;;;;;;;36.36;33.95;99180.78;5072130;28;855;-65
2022/08/19 14:24:58;;;;;;;;;;;;;;;35.94;34.84;99167.38;5071818;28;871;-64
2022/08/19 14:30:33;;;;;;;;;;;;;;;35.32;35.02;99178.88;5071796;28;701;-65
2022/08/19 14:33:01;;;;;;;;;;;;;;;35.27;35.95;99177.03;5071704;28;914;-64
2022/08/19 14:35:28;;;;;;;;;;;;;;;35.09;35.88;99181.94;5053751;28;1157;-64
2022/08/19 14:37:55;;;;;;;;;;;;;;;35.18;36.06;99178.44;5071540;28;1952;-64
2022/08/19 14:40:26;;;;;;;;;;;;;;;35.13;36.22;99187.28;5071672;28;910;-65
2022/08/19 14:42:59;;;;;;;;;;;;;;;35.14;35.83;99183.88;5071559;28;847;-64
2022/08/19 14:45:26;;;;;;;;;;;;;;;34.94;36.21;99184.97;5071613;28;927;-64
2022/08/19 14:47:54;;;;;;;;;;;;;;;34.80;36.27;99189.50;5071557;28;860;-65
2022/08/19 14:50:21;;;;;;;;;;;;;;;34.41;37.01;99183.31;5071477;28;839;-64
2022/08/19 14:52:48;;;;;;;;;;;;;;;33.92;37.85;99189.13;5071760;28;895;-65
2022/08/19 14:55:17;;;;;;;;;;;;;;;32.96;39.34;99183.31;5071495;28;887;-65
2022/08/19 14:57:44;;;;;;;;;;;;;;;32.04;41.46;99188.97;5071246;28;1949;-64
2022/08/19 15:00:12;;;;;;;;;;;;;;;31.31;43.27;99189.00;5071338;28;900;-64
2022/08/19 15:02:39;;;;;;;;;;;;;;;30.92;44.43;99182.31;5071720;28;985;-64
2022/08/19 15:05:06;;;;;;;;;;;;;;;31.28;44.15;99175.84;5071342;28;820;-64
2022/08/19 15:07:33;;;;;;;;;;;;;;;31.73;43.12;99177.44;5071603;28;891;-64
2022/08/19 15:09:59;;;;;;;;;;;;;;;31.67;43.26;99180.44;5074747;28;1226;-64
2022/08/19 15:12:25;;;;;;;;;;;;;;;31.99;43.51;99184.19;5075550;28;831;-64
2022/08/19 15:14:51;;;;;;;;;;;;;;;32.14;43.30;99190.69;5075410;28;906;-64
2022/08/19 15:17:18;;;;;;;;;;;;;;;32.43;42.94;99187.69;5075352;28;1973;-64
2022/08/19 15:19:45;;;;;;;;;;;;;;;32.62;42.23;99187.34;5075396;28;831;-65
2022/08/19 15:22:11;;;;;;;;;;;;;;;32.70;42.41;99188.09;5075253;28;858;-64
2022/08/19 15:24:37;;;;;;;;;;;;;;;32.68;42.04;99190.78;5075346;28;851;-65
2022/08/19 15:27:04;;;;;;;;;;;;;;;32.24;42.16;99196.63;5075153;28;852;-65
2022/08/19 15:29:30;;;;;;;;;;;;;;;31.89;43.45;99189.66;5075109;28;832;-64
2022/08/19 15:31:57;;;;;;;;;;;;;;;31.56;44.16;99200.78;5075145;28;887;-63
2022/08/19 15:34:24;;;;;;;;;;;;;;;31.32;44.43;99202.72;5075218;28;844;-64
2022/08/19 15:36:49;;;;;;;;;;;;;;;31.20;44.61;99200.75;5075128;28;1889;-65
2022/08/19 15:39:15;;;;;;;;;;;;;;;31.07;44.83;99207.34;5057194;28;1299;-65
2022/08/19 15:41:41;;;;;;;;;;;;;;;30.99;45.53;99204.41;5075305;28;799;-64
2022/08/19 15:44:12;;;;;;;;;;;;;;;30.93;45.55;99200.94;5074930;28;879;-64
2022/08/19 15:46:39;;;;;;;;;;;;;;;30.79;46.08;99199.47;5074910;28;819;-65
2022/08/19 15:49:05;;;;;;;;;;;;;;;30.63;46.18;99195.75;5074760;28;983;-64
2022/08/19 15:51:32;;;;;;;;;;;;;;;30.50;46.58;99203.03;5074928;28;823;-64
2022/08/19 15:53:59;;;;;;;;;;;;;;;30.42;46.81;99207.16;5075086;28;886;-64